Time;durP1;ratioP1;P1;durP2;ratioP2;P2;SDS_P1;SDS_P2;PMS_P1;PMS_P2;Temp;Humidity;BMP_temperature;BMP_pressure;BME280_temperature;BME280_humidity;BME280_pressure;Samples;Min_cycle;Max_cycle;Signal;HPM_P1;HPM_P2
2022/06/01 00:01:25;;;;;;;12.10;3.10;;;17.70;99.90;;;;;;5058917;28;20229;-72
2022/06/01 00:03:52;;;;;;;8.23;3.10;;;17.70;99.90;;;;;;5043460;28;20187;-71
2022/06/01 00:06:18;;;;;;;13.53;3.00;;;17.70;99.90;;;;;;5059343;28;20246;-71
2022/06/01 00:08:44;;;;;;;9.60;2.87;;;17.70;99.90;;;;;;5066793;28;20255;-71
2022/06/01 00:11:11;;;;;;;7.00;2.90;;;17.70;99.90;;;;;;5045747;28;20242;-71
2022/06/01 00:13:38;;;;;;;7.23;2.53;;;17.70;99.90;;;;;;5089559;28;20582;-71
2022/06/01 00:16:04;;;;;;;10.20;3.00;;;17.80;99.90;;;;;;5089180;28;20206;-71
2022/06/01 00:18:31;;;;;;;12.80;3.53;;;17.80;99.90;;;;;;5048910;28;20198;-71
2022/06/01 00:20:57;;;;;;;9.87;3.20;;;17.80;99.90;;;;;;5073665;28;20190;-71
2022/06/01 00:23:24;;;;;;;10.77;2.90;;;17.80;99.90;;;;;;5053858;28;20222;-71
2022/06/01 00:25:51;;;;;;;16.10;3.47;;;17.80;99.90;;;;;;5084993;28;20221;-71
2022/06/01 00:28:17;;;;;;;9.03;2.93;;;17.80;99.90;;;;;;5065381;28;20225;-72
2022/06/01 00:30:44;;;;;;;11.20;2.90;;;17.90;99.90;;;;;;5096434;28;20190;-72
2022/06/01 00:33:11;;;;;;;9.03;2.70;;;17.90;99.90;;;;;;5087477;28;20189;-70
2022/06/01 00:35:38;;;;;;;8.63;2.80;;;17.90;99.90;;;;;;5086290;28;20190;-71
2022/06/01 00:38:05;;;;;;;10.73;2.93;;;17.90;99.90;;;;;;5088413;28;20676;-71
2022/06/01 00:40:32;;;;;;;11.10;2.90;;;17.90;99.90;;;;;;5080358;28;20302;-71
2022/06/01 00:43:16;;;;;;;8.80;2.60;;;17.90;99.90;;;;;;5080051;28;20178;-71
2022/06/01 00:45:43;;;;;;;10.40;2.77;;;17.90;99.90;;;;;;5052280;28;20178;-71
2022/06/01 00:48:09;;;;;;;9.23;2.93;;;17.80;99.90;;;;;;5077433;28;20186;-71
2022/06/01 00:50:39;;;;;;;6.53;2.57;;;17.80;99.90;;;;;;5067644;28;20195;-71
2022/06/01 00:53:22;;;;;;;7.67;2.60;;;17.80;99.90;;;;;;5081712;28;20177;-71
2022/06/01 00:55:59;;;;;;;8.30;3.20;;;17.80;99.90;;;;;;5084184;28;20198;-72
2022/06/01 00:58:39;;;;;;;10.33;3.37;;;17.80;99.90;;;;;;5070131;28;20227;-71
2022/06/01 01:01:08;;;;;;;14.53;3.27;;;17.80;99.90;;;;;;5044626;28;20174;-71
2022/06/01 01:03:40;;;;;;;9.47;3.20;;;17.70;99.90;;;;;;5069467;28;20205;-71
2022/06/01 01:06:25;;;;;;;14.23;2.90;;;17.70;99.90;;;;;;5057401;28;20185;-71
2022/06/01 01:08:52;;;;;;;10.87;3.30;;;17.70;99.90;;;;;;5087922;28;20216;-72
2022/06/01 01:11:52;;;;;;;8.50;2.73;;;17.70;99.90;;;;;;5069351;28;20196;-71
2022/06/01 01:14:25;;;;;;;10.87;3.00;;;17.70;99.90;;;;;;5088034;28;20286;-72
2022/06/01 01:16:53;;;;;;;12.07;2.93;;;17.70;99.90;;;;;;5069268;28;20214;-71
2022/06/01 01:19:33;;;;;;;7.70;2.50;;;17.70;99.90;;;;;;5070079;28;20197;-72
2022/06/01 01:22:32;;;;;;;12.13;2.93;;;17.60;99.90;;;;;;5055046;28;20642;-72
2022/06/01 01:25:23;;;;;;;7.07;2.87;;;17.50;99.90;;;;;;5050276;28;20296;-71
2022/06/01 01:27:53;;;;;;;10.37;2.90;;;17.50;99.90;;;;;;5095772;28;20575;-72
2022/06/01 01:30:38;;;;;;;14.07;2.83;;;17.50;99.90;;;;;;5086091;28;20858;-71
2022/06/01 01:33:29;;;;;;;10.40;3.17;;;17.40;99.90;;;;;;5051582;28;20718;-72
2022/06/01 01:36:04;;;;;;;8.40;2.63;;;17.30;99.90;;;;;;5069939;28;20308;-72
2022/06/01 01:39:23;;;;;;;11.73;3.40;;;17.40;99.90;;;;;;5087729;28;20231;-72
2022/06/01 01:41:53;;;;;;;6.97;2.40;;;17.40;99.90;;;;;;5052340;28;20296;-72
2022/06/01 01:44:32;;;;;;;6.73;2.13;;;17.30;99.90;;;;;;5046418;28;20244;-71
2022/06/01 01:46:59;;;;;;;7.03;2.33;;;17.40;99.90;;;;;;5067898;28;20185;-73
2022/06/01 01:49:30;;;;;;;6.23;2.00;;;17.40;99.90;;;;;;5070069;28;20190;-72
2022/06/01 01:52:18;;;;;;;5.83;2.43;;;17.40;99.90;;;;;;5086234;28;20281;-71
2022/06/01 01:55:09;;;;;;;5.93;1.80;;;17.40;99.90;;;;;;5063167;28;20289;-72
2022/06/01 01:57:59;;;;;;;3.87;1.97;;;17.30;99.90;;;;;;5047761;28;20305;-71
2022/06/01 02:00:38;;;;;;;5.60;2.17;;;17.20;99.90;;;;;;5053645;28;20210;-71
2022/06/01 02:03:34;;;;;;;6.90;1.77;;;17.20;99.90;;;;;;5100285;28;20698;-71
2022/06/01 02:06:23;;;;;;;15.37;2.40;;;17.20;99.90;;;;;;5068526;28;20190;-71
2022/06/01 02:09:08;;;;;;;8.37;2.03;;;17.20;99.90;;;;;;5073399;28;20471;-71
2022/06/01 02:14:38;;;;;;;11.17;2.43;;;17.20;99.90;;;;;;5084617;28;20305;-72
2022/06/01 02:17:14;;;;;;;6.73;2.60;;;17.20;99.90;;;;;;5053679;28;20213;-72
2022/06/01 02:20:13;;;;;;;11.77;2.83;;;17.10;99.90;;;;;;5091653;28;20189;-72
2022/06/01 02:22:41;;;;;;;10.80;2.27;;;17.10;99.90;;;;;;5077418;28;20192;-71
2022/06/01 02:25:11;;;;;;;5.43;1.97;;;17.10;99.90;;;;;;5073243;28;20192;-71
2022/06/01 02:27:39;;;;;;;6.53;2.37;;;17.10;99.90;;;;;;5076446;28;20190;-71
2022/06/01 02:30:16;;;;;;;11.77;2.70;;;17.10;99.90;;;;;;5076593;28;20190;-72
2022/06/01 02:32:46;;;;;;;10.30;2.70;;;17.10;99.90;;;;;;5069714;28;20194;-72
2022/06/01 02:35:19;;;;;;;9.47;2.70;;;17.00;99.90;;;;;;5089473;28;20194;-72
2022/06/01 02:37:54;;;;;;;5.90;2.27;;;17.10;99.90;;;;;;5074444;28;20214;-73
2022/06/01 02:40:24;;;;;;;12.90;2.80;;;17.10;99.90;;;;;;5094170;28;20626;-72
2022/06/01 02:42:52;;;;;;;9.10;2.70;;;17.10;99.90;;;;;;5091551;28;20201;-71
2022/06/01 02:45:24;;;;;;;7.03;2.57;;;17.00;99.90;;;;;;5057485;28;20245;-72
2022/06/01 02:47:54;;;;;;;9.67;3.20;;;17.00;99.90;;;;;;5051868;28;20288;-71
2022/06/01 02:50:26;;;;;;;7.20;2.63;;;17.00;99.90;;;;;;5069402;28;21723;-72
2022/06/01 02:52:57;;;;;;;9.03;2.20;;;16.90;99.90;;;;;;5071859;28;20280;-71
2022/06/01 02:55:25;;;;;;;7.90;2.80;;;16.90;99.90;;;;;;5074562;28;20217;-73
2022/06/01 02:57:54;;;;;;;6.70;2.20;;;16.90;99.90;;;;;;5076282;28;20251;-72
2022/06/01 03:00:43;;;;;;;4.23;2.03;;;16.90;99.90;;;;;;5092785;28;20190;-71
2022/06/01 03:03:11;;;;;;;7.57;2.33;;;16.90;99.90;;;;;;5061588;28;20186;-71
2022/06/01 03:05:40;;;;;;;6.47;2.20;;;16.90;99.90;;;;;;5074832;28;20194;-71
2022/06/01 03:08:09;;;;;;;7.30;2.63;;;16.90;99.90;;;;;;5070724;28;20306;-72
2022/06/01 03:10:36;;;;;;;12.00;2.20;;;16.90;99.90;;;;;;5084516;28;20202;-71
2022/06/01 03:13:04;;;;;;;8.10;2.40;;;17.00;99.90;;;;;;5075032;28;20658;-71
2022/06/01 03:15:30;;;;;;;7.17;2.07;;;17.00;99.90;;;;;;5093888;28;20270;-71
2022/06/01 03:17:57;;;;;;;6.93;2.57;;;17.00;99.90;;;;;;5051760;28;20225;-73
2022/06/01 03:20:29;;;;;;;10.10;2.50;;;17.10;99.90;;;;;;5092533;28;20598;-72
2022/06/01 03:22:58;;;;;;;9.40;2.90;;;17.10;99.90;;;;;;5082794;28;20198;-72
2022/06/01 03:25:27;;;;;;;5.93;2.23;;;17.10;99.90;;;;;;5072806;28;20185;-71
2022/06/01 03:27:59;;;;;;;11.10;2.20;;;17.10;99.90;;;;;;5093228;28;20178;-71
2022/06/01 03:30:28;;;;;;;7.60;2.10;;;17.10;99.90;;;;;;5073046;28;20634;-71
2022/06/01 03:32:56;;;;;;;7.67;2.03;;;17.10;99.90;;;;;;5064781;28;20194;-72
2022/06/01 03:35:28;;;;;;;5.70;2.47;;;17.00;99.90;;;;;;5091995;28;20273;-71
2022/06/01 03:37:54;;;;;;;10.27;2.53;;;17.00;99.90;;;;;;5069670;28;20301;-71
2022/06/01 03:40:22;;;;;;;11.10;2.63;;;17.00;99.90;;;;;;5097886;28;20246;-71
2022/06/01 03:42:48;;;;;;;8.40;2.53;;;17.00;99.90;;;;;;5071637;28;20690;-72
2022/06/01 03:48:08;;;;;;;11.27;2.70;;;17.00;99.90;;;;;;5042000;28;20661;-72
2022/06/01 03:50:35;;;;;;;8.73;2.60;;;17.10;99.90;;;;;;5090386;28;20204;-71
2022/06/01 03:53:05;;;;;;;10.07;3.00;;;17.10;99.90;;;;;;5068793;28;20182;-71
2022/06/01 03:55:31;;;;;;;11.43;2.83;;;17.10;99.90;;;;;;5084719;28;20254;-71
2022/06/01 03:57:58;;;;;;;10.03;3.10;;;17.20;99.90;;;;;;5070991;28;20210;-72
2022/06/01 04:00:26;;;;;;;9.30;3.03;;;17.20;99.90;;;;;;5070186;28;20190;-71
2022/06/01 04:02:53;;;;;;;9.27;2.93;;;17.30;99.90;;;;;;5054338;28;20186;-71
2022/06/01 04:05:22;;;;;;;17.03;2.90;;;17.30;99.90;;;;;;5053311;28;20189;-72
2022/06/01 04:07:51;;;;;;;9.80;2.70;;;17.30;99.90;;;;;;5076398;28;20215;-71
2022/06/01 04:10:20;;;;;;;8.57;2.67;;;17.40;99.90;;;;;;5077332;28;20205;-71
2022/06/01 04:12:46;;;;;;;10.37;2.77;;;17.50;99.90;;;;;;5068432;28;20210;-72
2022/06/01 04:15:14;;;;;;;9.87;2.97;;;17.50;99.90;;;;;;5073494;28;20243;-71
2022/06/01 04:17:40;;;;;;;9.97;2.67;;;17.50;99.90;;;;;;5084551;28;20236;-72
2022/06/01 04:20:09;;;;;;;5.93;2.30;;;17.60;99.90;;;;;;5086210;28;20264;-72
2022/06/01 04:22:44;;;;;;;12.33;2.53;;;17.70;99.90;;;;;;5095790;28;20546;-72
2022/06/01 04:25:15;;;;;;;9.87;2.50;;;17.80;99.90;;;;;;5056323;28;20260;-72
2022/06/01 04:27:43;;;;;;;8.80;2.40;;;17.90;99.90;;;;;;5072738;28;20196;-71
2022/06/01 04:30:14;;;;;;;7.77;2.53;;;17.90;99.90;;;;;;5088772;28;20198;-72
2022/06/01 04:32:49;;;;;;;6.73;2.70;;;18.00;99.90;;;;;;5070407;28;20190;-71
2022/06/01 04:35:17;;;;;;;6.40;2.40;;;18.10;99.90;;;;;;5076357;28;20293;-71
2022/06/01 04:37:46;;;;;;;13.57;2.60;;;18.20;99.90;;;;;;5066152;28;20217;-71
2022/06/01 04:40:14;;;;;;;9.30;2.67;;;18.30;99.90;;;;;;5075974;28;20191;-72
2022/06/01 04:42:42;;;;;;;6.07;2.30;;;18.30;99.90;;;;;;5071894;28;20783;-72
2022/06/01 04:45:14;;;;;;;6.80;2.53;;;18.40;99.90;;;;;;5071728;28;20186;-72
2022/06/01 04:47:41;;;;;;;7.43;2.00;;;18.50;99.90;;;;;;5071078;28;20181;-72
2022/06/01 04:50:09;;;;;;;6.93;2.33;;;18.60;99.90;;;;;;5056071;28;20270;-73
2022/06/01 04:52:36;;;;;;;9.23;2.60;;;18.70;99.90;;;;;;5051336;28;20908;-72
2022/06/01 04:55:07;;;;;;;6.13;2.47;;;18.70;99.90;;;;;;5091712;28;20201;-71
2022/06/01 04:57:36;;;;;;;7.57;2.37;;;18.80;99.90;;;;;;5068792;28;20229;-71
2022/06/01 05:00:04;;;;;;;10.27;2.70;;;18.90;99.90;;;;;;5071675;28;20186;-72
2022/06/01 05:02:30;;;;;;;10.80;2.63;;;18.90;99.90;;;;;;5053406;28;20190;-72
2022/06/01 05:04:56;;;;;;;8.23;2.87;;;18.90;99.90;;;;;;5070957;28;20226;-71
2022/06/01 05:07:26;;;;;;;12.07;3.60;;;19.00;99.90;;;;;;5056818;28;20893;-72
2022/06/01 05:09:52;;;;;;;8.47;2.70;;;19.00;99.90;;;;;;5075313;28;20722;-72
2022/06/01 05:12:19;;;;;;;12.03;2.90;;;19.10;99.90;;;;;;5085264;28;20242;-71
2022/06/01 05:14:45;;;;;;;6.33;2.73;;;19.10;99.90;;;;;;5103109;28;20285;-72
2022/06/01 05:17:11;;;;;;;11.17;2.87;;;19.20;99.90;;;;;;5086361;28;20233;-71
2022/06/01 05:19:38;;;;;;;6.50;2.73;;;19.20;99.90;;;;;;5067352;28;20220;-72
2022/06/01 05:22:04;;;;;;;9.77;3.20;;;19.30;99.90;;;;;;5083388;28;20346;-72
2022/06/01 05:24:30;;;;;;;11.13;3.07;;;19.40;99.90;;;;;;5087969;28;20533;-72
2022/06/01 05:26:57;;;;;;;13.67;3.07;;;19.40;99.90;;;;;;5068203;28;20205;-72
2022/06/01 05:29:23;;;;;;;8.13;2.70;;;19.50;99.90;;;;;;5091383;28;20309;-71
2022/06/01 05:31:50;;;;;;;11.27;2.87;;;19.70;99.90;;;;;;5075901;28;20196;-72
2022/06/01 05:34:17;;;;;;;9.63;2.80;;;19.70;99.90;;;;;;5072150;28;20210;-72
2022/06/01 05:36:43;;;;;;;9.80;2.80;;;19.80;99.90;;;;;;5098745;28;20210;-72
2022/06/01 05:39:09;;;;;;;12.03;3.63;;;19.90;99.90;;;;;;5073379;28;20510;-72
2022/06/01 05:41:37;;;;;;;10.27;2.97;;;19.90;99.90;;;;;;5078863;28;20272;-72
2022/06/01 05:44:04;;;;;;;12.63;3.30;;;20.00;99.90;;;;;;5055287;28;20265;-72
2022/06/01 05:46:31;;;;;;;9.03;3.10;;;20.10;99.90;;;;;;5096907;28;20193;-72
2022/06/01 05:48:57;;;;;;;12.00;3.47;;;20.20;99.90;;;;;;5053673;28;20199;-71
2022/06/01 05:51:24;;;;;;;10.70;3.27;;;20.30;99.90;;;;;;5074954;28;20201;-71
2022/06/01 05:53:50;;;;;;;10.00;3.60;;;20.30;99.90;;;;;;5052053;28;20194;-72
2022/06/01 05:56:16;;;;;;;25.13;4.60;;;20.40;99.90;;;;;;5072374;28;20202;-72
2022/06/01 05:58:42;;;;;;;11.43;4.00;;;20.50;99.90;;;;;;5099665;28;20190;-71
2022/06/01 06:01:09;;;;;;;21.63;4.67;;;20.60;99.90;;;;;;5069213;28;20222;-71
2022/06/01 06:03:35;;;;;;;10.53;3.97;;;20.70;99.90;;;;;;5066250;28;20194;-72
2022/06/01 06:06:14;;;;;;;13.90;4.23;;;20.80;99.90;;;;;;5071262;28;20198;-71
2022/06/01 06:08:47;;;;;;;12.53;4.23;;;20.90;99.90;;;;;;5085532;28;20197;-72
2022/06/01 06:11:16;;;;;;;14.30;4.80;;;20.90;99.90;;;;;;5063638;28;20206;-72
2022/06/01 06:13:43;;;;;;;13.83;4.33;;;21.10;99.90;;;;;;5084645;28;20217;-72
2022/06/01 06:16:10;;;;;;;14.67;4.23;;;21.10;99.90;;;;;;5068778;28;20859;-72
2022/06/01 06:18:38;;;;;;;14.90;4.50;;;21.10;99.90;;;;;;5054179;28;20197;-71
2022/06/01 06:21:05;;;;;;;14.63;4.00;;;21.20;99.90;;;;;;5069896;28;20775;-72
2022/06/01 06:23:34;;;;;;;15.60;4.33;;;21.30;99.90;;;;;;5075224;28;20194;-73
2022/06/01 06:26:01;;;;;;;16.83;4.20;;;21.30;99.90;;;;;;5088131;28;20193;-72
2022/06/01 06:28:28;;;;;;;12.97;4.37;;;21.40;99.90;;;;;;5091398;28;20658;-72
2022/06/01 06:30:55;;;;;;;14.07;4.50;;;21.50;99.90;;;;;;5077153;28;20693;-72
2022/06/01 06:33:25;;;;;;;10.23;3.73;;;21.60;99.90;;;;;;5071134;28;20194;-72
2022/06/01 06:36:03;;;;;;;17.23;4.17;;;21.70;99.90;;;;;;5067958;28;20251;-72
2022/06/01 06:38:34;;;;;;;14.93;4.70;;;21.80;99.90;;;;;;5051707;28;20187;-72
2022/06/01 06:41:02;;;;;;;15.90;3.97;;;21.90;99.90;;;;;;5062126;28;20232;-73
2022/06/01 06:43:31;;;;;;;13.00;4.00;;;22.00;99.90;;;;;;5090516;28;20190;-74
2022/06/01 06:46:08;;;;;;;15.37;4.30;;;22.00;99.90;;;;;;5063851;28;20224;-73
2022/06/01 06:48:36;;;;;;;14.67;4.03;;;22.10;99.90;;;;;;5063337;28;20225;-73
2022/06/01 06:51:05;;;;;;;12.03;4.53;;;22.20;99.90;;;;;;5080143;28;20187;-75
2022/06/01 06:53:35;;;;;;;12.30;4.17;;;22.20;99.90;;;;;;5061741;28;20190;-73
2022/06/01 06:56:03;;;;;;;16.07;4.47;;;22.30;99.90;;;;;;5070133;28;20939;-73
2022/06/01 06:58:29;;;;;;;9.67;3.60;;;22.40;99.90;;;;;;5092393;28;20268;-73
2022/06/01 07:00:56;;;;;;;14.97;4.30;;;22.40;99.90;;;;;;5081342;28;20186;-74
2022/06/01 07:03:22;;;;;;;11.07;4.18;;;22.50;99.90;;;;;;5065177;28;20255;-71
2022/06/01 07:08:35;;;;;;;14.38;4.28;;;22.70;99.90;;;;;;5061920;28;20186;-73
2022/06/01 07:11:02;;;;;;;10.10;4.07;;;22.70;99.90;;;;;;5082088;28;20256;-73
2022/06/01 07:13:29;;;;;;;13.75;4.45;;;22.70;99.90;;;;;;5068988;28;20202;-73
2022/06/01 07:16:09;;;;;;;12.43;4.00;;;22.70;99.90;;;;;;5063799;28;20178;-74
2022/06/01 07:18:38;;;;;;;14.60;4.35;;;22.80;99.90;;;;;;5088143;28;20224;-72
2022/06/01 07:21:05;;;;;;;10.60;3.53;;;22.90;99.90;;;;;;5080886;28;20284;-73
2022/06/01 07:23:32;;;;;;;14.38;3.70;;;23.00;99.90;;;;;;5060403;28;20324;-72
2022/06/01 07:25:59;;;;;;;11.98;3.65;;;23.10;99.90;;;;;;5046269;28;20236;-73
2022/06/01 07:28:25;;;;;;;7.38;3.28;;;23.30;99.90;;;;;;5065521;28;20566;-72
2022/06/01 07:31:04;;;;;;;11.88;3.25;;;23.30;99.90;;;;;;5085488;28;20193;-71
2022/06/01 07:33:31;;;;;;;18.45;3.90;;;23.40;99.90;;;;;;5075599;28;20227;-73
2022/06/01 07:35:59;;;;;;;16.58;4.20;;;23.50;99.90;;;;;;5054755;28;20987;-72
2022/06/01 07:43:05;;;;;;;15.15;4.00;;;23.70;99.90;;;;;;5091412;28;20189;-73
2022/06/01 07:44:43;;;;;;;12.43;3.67;;;23.80;99.90;;;;;;5080446;28;20610;-74
2022/06/01 07:47:11;;;;;;;22.17;4.15;;;24.00;99.90;;;;;;5067782;28;20189;-73
2022/06/01 07:49:38;;;;;;;14.02;3.72;;;24.00;99.90;;;;;;5055121;28;20672;-73
2022/06/01 07:52:08;;;;;;;13.48;4.15;;;24.10;99.90;;;;;;5069960;28;20188;-73
2022/06/01 07:54:41;;;;;;;12.73;3.97;;;24.20;99.90;;;;;;5067431;28;20197;-73
2022/06/01 07:57:08;;;;;;;18.60;4.40;;;24.30;99.90;;;;;;5068757;28;20733;-73
2022/06/01 07:59:35;;;;;;;8.25;3.35;;;24.30;99.90;;;;;;5052503;28;20186;-73
2022/06/01 08:02:05;;;;;;;14.68;4.10;;;24.40;99.90;;;;;;5067648;28;20182;-73
2022/06/01 08:04:32;;;;;;;19.98;4.63;;;24.50;99.90;;;;;;5059122;28;20186;-72
2022/06/01 08:06:59;;;;;;;13.55;3.75;;;24.60;99.90;;;;;;5061813;28;20182;-73
2022/06/01 08:09:25;;;;;;;15.82;4.32;;;24.70;99.90;;;;;;5066319;28;20189;-73
2022/06/01 08:14:36;;;;;;;16.10;4.38;;;24.70;99.90;;;;;;5085197;28;20269;-73
2022/06/01 08:17:03;;;;;;;20.88;4.10;;;24.90;99.90;;;;;;5071315;28;20209;-74
2022/06/01 08:19:30;;;;;;;19.67;4.30;;;25.00;99.90;;;;;;5057526;28;20308;-73
2022/06/01 08:21:56;;;;;;;35.55;5.15;;;25.10;99.90;;;;;;5086285;28;20638;-73
2022/06/01 08:24:26;;;;;;;18.90;4.55;;;25.10;99.90;;;;;;5095584;28;20290;-73
2022/06/01 08:26:52;;;;;;;14.70;3.78;;;25.20;99.90;;;;;;5075162;28;20202;-72
2022/06/01 08:29:19;;;;;;;13.50;4.05;;;25.30;99.90;;;;;;5065195;28;20235;-73
2022/06/01 08:31:45;;;;;;;17.13;4.10;;;25.40;99.90;;;;;;5061371;28;20214;-73
2022/06/01 08:34:15;;;;;;;13.60;4.20;;;25.50;99.90;;;;;;5086999;28;20189;-72
2022/06/01 08:36:41;;;;;;;10.77;4.03;;;25.60;99.90;;;;;;5072073;28;20225;-72
2022/06/01 08:39:08;;;;;;;13.18;4.10;;;25.80;99.90;;;;;;5069936;28;20194;-73
2022/06/01 08:41:37;;;;;;;13.13;4.03;;;25.80;99.90;;;;;;5069191;28;20174;-73
2022/06/01 08:44:23;;;;;;;17.50;3.92;;;25.90;99.90;;;;;;5068960;28;20182;-73
2022/06/01 08:46:52;;;;;;;13.18;3.97;;;26.00;99.90;;;;;;5086746;28;20231;-72
2022/06/01 08:49:33;;;;;;;13.73;3.90;;;26.00;99.90;;;;;;5083843;28;20675;-72
2022/06/01 08:52:01;;;;;;;14.05;4.00;;;26.10;99.90;;;;;;5084826;28;20292;-72
2022/06/01 08:54:28;;;;;;;22.77;4.85;;;26.10;99.90;;;;;;5063727;28;20182;-72
2022/06/01 08:57:22;;;;;;;12.13;3.85;;;26.30;99.90;;;;;;5043543;28;20364;-74
2022/06/01 09:00:14;;;;;;;18.55;3.80;;;26.30;99.90;;;;;;5051402;28;20186;-72
2022/06/01 09:03:07;;;;;;;23.10;4.60;;;26.40;99.90;;;;;;5063297;28;20663;-73
2022/06/01 09:05:43;;;;;;;18.05;4.05;;;26.50;99.90;;;;;;5051966;28;20182;-74
2022/06/01 09:08:19;;;;;;;13.10;3.67;;;26.60;99.90;;;;;;5051181;28;20177;-72
2022/06/01 09:11:04;;;;;;;12.38;3.50;;;26.70;99.90;;;;;;5068672;28;20817;-73
2022/06/01 09:14:39;;;;;;;13.80;3.70;;;26.90;99.90;;;;;;5073153;28;20245;-73
2022/06/01 09:17:06;;;;;;;16.33;4.20;;;27.00;99.90;;;;;;4989138;28;20211;-71
2022/06/01 09:22:37;;;;;;;13.93;4.20;;;27.10;99.90;;;;;;5066049;28;20214;-73
2022/06/01 09:25:07;;;;;;;16.77;4.03;;;27.10;99.90;;;;;;5057026;28;20186;-73
2022/06/01 09:27:41;;;;;;;14.90;3.88;;;27.20;99.90;;;;;;5088252;28;20186;-72
2022/06/01 09:30:35;;;;;;;25.20;4.53;;;27.20;99.90;;;;;;5083321;28;20256;-72
2022/06/01 09:33:23;;;;;;;14.90;4.15;;;27.30;99.90;;;;;;5058624;28;20479;-72
2022/06/01 09:36:05;;;;;;;13.05;3.78;;;27.40;99.90;;;;;;5053601;28;21439;-72
2022/06/01 09:38:55;;;;;;;13.82;3.97;;;27.50;99.90;;;;;;5068263;28;20273;-72
2022/06/01 09:41:26;;;;;;;16.85;3.70;;;27.50;99.90;;;;;;5072364;28;20190;-72
2022/06/01 09:44:02;;;;;;;14.60;4.22;;;27.60;99.90;;;;;;5070558;28;20186;-73
2022/06/01 09:46:40;;;;;;;17.25;4.38;;;27.70;99.90;;;;;;5089787;28;20190;-73
2022/06/01 09:49:32;;;;;;;12.48;4.13;;;27.70;99.90;;;;;;5081853;28;20175;-73
2022/06/01 09:52:08;;;;;;;17.33;4.47;;;27.80;99.90;;;;;;5052076;28;20197;-74
2022/06/01 09:54:41;;;;;;;20.73;4.55;;;27.80;99.90;;;;;;5053084;28;20224;-75
2022/06/01 09:57:24;;;;;;;11.90;4.10;;;27.80;99.90;;;;;;5060854;28;20260;-72
2022/06/01 10:06:05;;;;;;;14.20;4.53;;;27.70;99.90;;;;;;5079219;28;20178;-73
2022/06/01 10:06:22;;;;;;;13.88;4.10;;;27.70;99.90;;;;;;5069067;28;20186;-73
2022/06/01 10:09:27;;;;;;;16.65;4.32;;;27.70;99.90;;;;;;5096665;28;20182;-73
2022/06/01 10:11:55;;;;;;;17.70;4.40;;;27.80;99.90;;;;;;5074439;28;20190;-73
2022/06/01 10:14:31;;;;;;;16.67;4.18;;;27.80;99.90;;;;;;5055647;28;20186;-72
2022/06/01 10:17:22;;;;;;;14.23;4.60;;;27.70;99.90;;;;;;5066771;28;20259;-73
2022/06/01 10:20:20;;;;;;;14.25;4.20;;;27.80;99.90;;;;;;5078231;28;20240;-73
2022/06/01 10:22:54;;;;;;;17.98;5.13;;;27.90;99.90;;;;;;5036796;28;20296;-73
2022/06/01 10:25:51;;;;;;;14.45;4.45;;;28.00;99.90;;;;;;5069671;28;20386;-74
2022/06/01 10:28:26;;;;;;;14.45;3.88;;;28.10;99.90;;;;;;5050508;28;20748;-73
2022/06/01 10:31:00;;;;;;;16.70;4.53;;;28.10;99.90;;;;;;5058936;28;20190;-73
2022/06/01 10:34:19;;;;;;;16.13;4.03;;;28.00;99.90;;;;;;5054300;28;20182;-71
2022/06/01 10:37:15;;;;;;;16.33;4.53;;;28.10;99.90;;;;;;4984543;28;20583;-72
2022/06/01 10:39:50;;;;;;;14.45;4.20;;;28.10;99.90;;;;;;5088670;28;20197;-71
2022/06/01 10:46:09;;;;;;;15.27;4.50;;;27.90;99.90;;;;;;5067502;28;20698;-72
2022/06/01 10:48:49;;;;;;;13.95;4.30;;;27.90;99.90;;;;;;5090996;28;20206;-73
2022/06/01 10:51:28;;;;;;;15.65;4.32;;;27.70;99.90;;;;;;5072997;28;20201;-73
2022/06/01 10:54:19;;;;;;;17.23;4.72;;;27.70;99.90;;;;;;5066407;28;20273;-73
2022/06/01 10:56:47;;;;;;;13.95;4.07;;;27.70;99.90;;;;;;5053442;28;20264;-73
2022/06/01 10:59:16;;;;;;;16.90;4.60;;;27.70;99.90;;;;;;5071947;28;20201;-73
2022/06/01 11:02:04;;;;;;;15.38;4.30;;;27.60;99.90;;;;;;5062618;28;20189;-73
2022/06/01 11:05:18;;;;;;;16.83;4.25;;;27.60;99.90;;;;;;5077784;28;20755;-73
2022/06/01 11:07:53;;;;;;;20.08;5.18;;;27.60;99.90;;;;;;5032190;28;20186;-73
2022/06/01 11:11:08;;;;;;;20.50;4.10;;;27.50;99.90;;;;;;5077717;28;20193;-73
2022/06/01 11:13:48;;;;;;;23.35;4.78;;;27.40;99.90;;;;;;5069131;28;20239;-73
2022/06/01 11:16:51;;;;;;;20.05;4.88;;;27.40;99.90;;;;;;5097332;28;20182;-73
2022/06/01 11:20:16;;;;;;;12.05;4.35;;;27.40;99.90;;;;;;5054265;28;20597;-72
2022/06/01 11:23:06;;;;;;;15.70;4.53;;;27.30;99.90;;;;;;5062687;28;20191;-72
2022/06/01 11:26:03;;;;;;;21.13;5.47;;;27.20;99.90;;;;;;5071201;28;20194;-72
2022/06/01 11:29:08;;;;;;;13.30;4.18;;;27.10;99.90;;;;;;5089325;28;20281;-72
2022/06/01 11:31:38;;;;;;;16.40;4.95;;;27.10;99.90;;;;;;5068056;28;20188;-72
2022/06/01 11:34:20;;;;;;;15.38;4.45;;;27.10;99.90;;;;;;5066595;28;20245;-72
2022/06/01 11:37:21;;;;;;;16.40;4.70;;;26.90;99.90;;;;;;5069596;28;20213;-72
2022/06/01 11:40:01;;;;;;;17.67;4.55;;;26.90;99.90;;;;;;5077312;28;20227;-72
2022/06/01 11:42:57;;;;;;;16.05;4.63;;;26.90;99.90;;;;;;5071503;28;20699;-72
2022/06/01 11:45:44;;;;;;;18.05;4.68;;;26.90;99.90;;;;;;5083645;28;20258;-72
2022/06/01 11:48:20;;;;;;;23.67;5.13;;;26.70;99.90;;;;;;5055889;28;20679;-72
2022/06/01 11:50:55;;;;;;;15.70;4.85;;;26.70;99.90;;;;;;5065601;28;20194;-72
2022/06/01 11:53:59;;;;;;;21.25;4.93;;;26.50;99.90;;;;;;5068494;28;20205;-74
2022/06/01 11:56:54;;;;;;;21.23;5.50;;;26.40;99.90;;;;;;5095131;28;20218;-73
2022/06/01 11:59:44;;;;;;;19.60;5.38;;;26.30;99.90;;;;;;5053352;28;20197;-74
2022/06/01 12:02:50;;;;;;;21.15;5.07;;;26.40;99.90;;;;;;5071740;28;20189;-73
2022/06/01 12:05:41;;;;;;;18.95;4.95;;;26.40;99.90;;;;;;5052377;28;20240;-72
2022/06/01 12:08:23;;;;;;;16.83;4.97;;;26.20;99.90;;;;;;5080190;28;20214;-72
2022/06/01 12:11:01;;;;;;;20.35;5.00;;;26.50;99.90;;;;;;5095118;28;20666;-73
2022/06/01 12:13:32;;;;;;;17.63;4.68;;;26.60;99.90;;;;;;5080200;28;20234;-73
2022/06/01 12:16:22;;;;;;;16.63;4.80;;;26.70;99.90;;;;;;5078591;28;20202;-72
2022/06/01 12:19:01;;;;;;;22.83;4.95;;;26.60;99.90;;;;;;5068785;28;20190;-72
2022/06/01 12:21:56;;;;;;;15.75;5.15;;;26.70;99.90;;;;;;5066758;28;20189;-72
2022/06/01 12:30:13;;;;;;;18.10;5.22;;;26.90;99.90;;;;;;5076996;28;20205;-72
2022/06/01 12:33:03;;;;;;;21.15;5.50;;;26.80;99.90;;;;;;5087285;28;20181;-71
2022/06/01 12:35:52;;;;;;;20.75;4.70;;;26.80;99.90;;;;;;5047755;28;20182;-72
2022/06/01 12:38:28;;;;;;;20.48;5.07;;;26.70;99.90;;;;;;5090326;28;20213;-71
2022/06/01 12:41:17;;;;;;;20.25;5.60;;;26.80;99.90;;;;;;5069957;28;20276;-72
2022/06/01 12:44:08;;;;;;;20.75;5.57;;;26.80;99.90;;;;;;5088545;28;20315;-72
2022/06/01 12:46:43;;;;;;;23.05;5.53;;;26.60;99.90;;;;;;5067875;28;20194;-72
2022/06/01 12:49:40;;;;;;;20.10;4.80;;;26.70;99.90;;;;;;5053794;28;20292;-72
2022/06/01 12:52:18;;;;;;;24.10;5.10;;;26.80;99.90;;;;;;5053051;28;20189;-71
2022/06/01 12:54:59;;;;;;;18.00;5.20;;;26.70;99.90;;;;;;5088619;28;20202;-71
2022/06/01 12:57:51;;;;;;;23.63;5.32;;;26.70;99.90;;;;;;5088993;28;20391;-72
2022/06/01 13:00:24;;;;;;;21.30;5.15;;;26.60;99.90;;;;;;5053054;28;20186;-72
2022/06/01 13:02:52;;;;;;;18.55;4.90;;;26.50;99.90;;;;;;5058529;28;20210;-72
2022/06/01 13:05:36;;;;;;;22.52;5.90;;;26.50;99.90;;;;;;5069441;28;20264;-71
2022/06/01 13:08:08;;;;;;;25.35;5.70;;;26.50;99.90;;;;;;5048429;28;20174;-71
2022/06/01 13:10:36;;;;;;;17.58;5.03;;;26.40;99.90;;;;;;5061101;28;20789;-72
2022/06/01 13:13:10;;;;;;;17.98;4.90;;;26.40;99.90;;;;;;5066771;28;20213;-71
2022/06/01 13:15:39;;;;;;;18.73;5.40;;;26.50;99.90;;;;;;5087435;28;20186;-71
2022/06/01 13:18:19;;;;;;;18.27;5.25;;;26.50;99.90;;;;;;5103884;28;20216;-71
2022/06/01 13:21:10;;;;;;;14.93;5.55;;;26.40;99.90;;;;;;5070047;28;20721;-72
2022/06/01 13:23:49;;;;;;;19.00;5.38;;;26.40;99.90;;;;;;5052420;28;20202;-71
2022/06/01 13:26:48;;;;;;;21.55;5.72;;;26.40;99.90;;;;;;5088706;28;20174;-72
2022/06/01 13:29:34;;;;;;;16.15;5.10;;;26.30;99.90;;;;;;5070232;28;20221;-72
2022/06/01 13:32:10;;;;;;;19.70;5.32;;;26.30;99.90;;;;;;5088027;28;20166;-72
2022/06/01 13:34:48;;;;;;;19.75;5.45;;;26.30;99.90;;;;;;5069276;28;20193;-71
2022/06/01 13:37:29;;;;;;;22.65;6.03;;;26.30;99.90;;;;;;5049232;28;20237;-71
2022/06/01 13:39:58;;;;;;;17.00;4.68;;;26.30;99.90;;;;;;5075775;28;20190;-72
2022/06/01 13:42:33;;;;;;;26.17;5.50;;;26.30;99.90;;;;;;5068143;28;20568;-72
2022/06/01 13:45:08;;;;;;;16.65;4.50;;;26.30;99.90;;;;;;5070244;28;20764;-72
2022/06/01 13:47:59;;;;;;;20.27;6.00;;;26.30;99.90;;;;;;5085898;28;20182;-72
2022/06/01 13:50:40;;;;;;;18.73;4.70;;;26.30;99.90;;;;;;5073357;28;20202;-72
2022/06/01 13:53:33;;;;;;;20.60;5.10;;;26.20;99.90;;;;;;5077371;28;20193;-72